Time;durP1;ratioP1;P1;durP2;ratioP2;P2;SDS_P1;SDS_P2;PMS_P1;PMS_P2;Temp;Humidity;BMP_temperature;BMP_pressure;BME280_temperature;BME280_humidity;BME280_pressure;Samples;Min_cycle;Max_cycle;Signal;HPM_P1;HPM_P2
2021/03/14 00:00:55;;;;;;;;;;;11.30;47.20;;;;;;4951081;28;75287;-73
2021/03/14 00:03:21;;;;;;;;;;;11.30;47.30;;;;;;4949108;28;77279;-73
2021/03/14 00:05:48;;;;;;;;;;;11.30;47.50;;;;;;4950816;28;75117;-71
2021/03/14 00:08:14;;;;;;;;;;;11.20;47.30;;;;;;4950280;28;74970;-72
2021/03/14 00:10:48;;;;;;;;;;;11.20;47.20;;;;;;4949424;28;74555;-70
2021/03/14 00:13:16;;;;;;;;;;;11.20;47.40;;;;;;4952617;28;75152;-70
2021/03/14 00:15:42;;;;;;;;;;;11.20;47.70;;;;;;4951690;28;77247;-72
2021/03/14 00:18:08;;;;;;;;;;;11.20;47.70;;;;;;4953202;28;74468;-71
2021/03/14 00:20:33;;;;;;;;;;;11.20;47.80;;;;;;4952667;28;76392;-72
2021/03/14 00:22:59;;;;;;;;;;;11.20;47.90;;;;;;4953850;28;76351;-72
2021/03/14 00:25:25;;;;;;;;;;;11.10;48.00;;;;;;4953231;28;77005;-72
2021/03/14 00:27:50;;;;;;;;;;;11.10;48.10;;;;;;4951506;28;78157;-74
2021/03/14 00:30:16;;;;;;;;;;;11.00;48.10;;;;;;4953324;28;75013;-73
2021/03/14 00:32:42;;;;;;;;;;;11.00;48.40;;;;;;4950741;28;76199;-73
2021/03/14 00:35:10;;;;;;;;;;;10.90;48.50;;;;;;4951678;28;77584;-73
2021/03/14 00:37:36;;;;;;;;;;;10.90;48.70;;;;;;4952263;28;76164;-72
2021/03/14 00:40:02;;;;;;;;;;;10.90;48.70;;;;;;4950781;28;76071;-71
2021/03/14 00:42:28;;;;;;;;;;;10.90;48.80;;;;;;4951018;28;75490;-72
2021/03/14 00:44:53;;;;;;;;;;;10.90;49.00;;;;;;4950887;28;75391;-72
2021/03/14 00:47:19;;;;;;;;;;;10.90;49.10;;;;;;4950778;28;77967;-72
2021/03/14 00:49:45;;;;;;;;;;;10.80;49.20;;;;;;4950245;28;74711;-72
2021/03/14 00:52:10;;;;;;;;;;;10.80;49.50;;;;;;4952422;28;75655;-72
2021/03/14 00:54:36;;;;;;;;;;;10.70;49.60;;;;;;4950560;28;74669;-73
2021/03/14 00:57:03;;;;;;;;;;;10.60;49.40;;;;;;4951117;28;94303;-73
2021/03/14 00:59:29;;;;;;;;;;;10.60;49.40;;;;;;4950834;28;78196;-72
2021/03/14 01:01:54;;;;;;;;;;;10.60;49.30;;;;;;4949951;28;79289;-74
2021/03/14 01:04:20;;;;;;;;;;;10.60;49.30;;;;;;4951696;28;75063;-72
2021/03/14 01:06:45;;;;;;;;;;;10.60;49.50;;;;;;4952664;28;74731;-75
2021/03/14 01:09:13;;;;;;;;;;;10.50;49.50;;;;;;4950152;28;75847;-72
2021/03/14 01:11:39;;;;;;;;;;;10.50;49.60;;;;;;4952319;28;74529;-70
2021/03/14 01:14:05;;;;;;;;;;;10.50;49.60;;;;;;4951730;28;76730;-71
2021/03/14 01:16:32;;;;;;;;;;;10.40;49.50;;;;;;4952024;28;74881;-70
2021/03/14 01:19:07;;;;;;;;;;;10.40;49.70;;;;;;4950946;28;75314;-71
2021/03/14 01:21:32;;;;;;;;;;;10.40;49.90;;;;;;4951672;28;75222;-71
2021/03/14 01:23:58;;;;;;;;;;;10.40;50.10;;;;;;4950794;28;75292;-70
2021/03/14 01:26:24;;;;;;;;;;;10.40;50.10;;;;;;4951739;28;74424;-69
2021/03/14 01:28:49;;;;;;;;;;;10.30;50.10;;;;;;4951641;28;75664;-70
2021/03/14 01:31:15;;;;;;;;;;;10.30;50.20;;;;;;4951411;28;75016;-71
2021/03/14 01:33:41;;;;;;;;;;;10.30;50.20;;;;;;4951404;28;75281;-70
2021/03/14 01:36:07;;;;;;;;;;;10.20;50.30;;;;;;4949460;28;76062;-71
2021/03/14 01:38:32;;;;;;;;;;;10.20;50.50;;;;;;4950032;28;77093;-70
2021/03/14 01:40:58;;;;;;;;;;;10.20;50.40;;;;;;4951296;28;75234;-72
2021/03/14 01:43:24;;;;;;;;;;;10.10;50.50;;;;;;4949966;28;75541;-71
2021/03/14 01:45:49;;;;;;;;;;;10.10;50.60;;;;;;4951291;28;75225;-75
2021/03/14 01:48:21;;;;;;;;;;;10.00;50.70;;;;;;4951065;28;75176;-73
2021/03/14 01:50:47;;;;;;;;;;;10.00;50.80;;;;;;4951304;28;75641;-75
2021/03/14 01:53:13;;;;;;;;;;;9.90;50.90;;;;;;4950032;28;75233;-75
2021/03/14 01:55:39;;;;;;;;;;;9.80;51.40;;;;;;4949477;28;77868;-74
2021/03/14 01:58:04;;;;;;;;;;;9.70;52.70;;;;;;4951283;28;75201;-71
2021/03/14 02:00:31;;;;;;;;;;;9.60;52.10;;;;;;4951265;28;75038;-71
2021/03/14 02:02:56;;;;;;;;;;;9.50;52.20;;;;;;4951329;28;75055;-72
2021/03/14 02:05:22;;;;;;;;;;;9.50;52.90;;;;;;4951224;28;75115;-74
2021/03/14 02:07:50;;;;;;;;;;;9.40;53.30;;;;;;4951459;28;75102;-74
2021/03/14 02:10:18;;;;;;;;;;;9.40;52.90;;;;;;4948723;28;76170;-71
2021/03/14 02:12:43;;;;;;;;;;;9.30;53.80;;;;;;4949347;28;77173;-71
2021/03/14 02:15:09;;;;;;;;;;;9.20;53.30;;;;;;4949189;28;75427;-73
2021/03/14 02:17:38;;;;;;;;;;;9.00;54.20;;;;;;4967704;27;77414;-72
2021/03/14 02:20:15;;;;;;;;;;;8.90;53.60;;;;;;4949342;28;75303;-69
2021/03/14 02:22:42;;;;;;;;;;;8.70;53.90;;;;;;4949709;28;77678;-69
2021/03/14 02:25:11;;;;;;;;;;;8.70;53.70;;;;;;4951934;28;75050;-71
2021/03/14 02:27:38;;;;;;;;;;;8.70;53.30;;;;;;4966631;27;77701;-69
2021/03/14 02:30:04;;;;;;;;;;;8.70;53.20;;;;;;4949393;28;75410;-73
2021/03/14 02:32:32;;;;;;;;;;;8.70;52.80;;;;;;4951030;28;74425;-74
2021/03/14 02:35:00;;;;;;;;;;;8.70;52.80;;;;;;4948275;28;76306;-73
2021/03/14 02:37:26;;;;;;;;;;;8.70;52.70;;;;;;4949472;28;77203;-75
2021/03/14 02:39:57;;;;;;;;;;;8.70;52.40;;;;;;4950438;28;75294;-72
2021/03/14 02:42:24;;;;;;;;;;;8.60;52.10;;;;;;4950869;28;75185;-73
2021/03/14 02:44:51;;;;;;;;;;;8.60;52.90;;;;;;4950717;28;74747;-72
2021/03/14 02:47:23;;;;;;;;;;;8.40;53.60;;;;;;4949732;28;75456;-76
2021/03/14 02:49:50;;;;;;;;;;;8.30;54.40;;;;;;4948980;28;77998;-73
2021/03/14 02:52:17;;;;;;;;;;;8.20;55.00;;;;;;4948988;28;78336;-72
2021/03/14 02:54:44;;;;;;;;;;;8.00;55.70;;;;;;4950125;28;75165;-71
2021/03/14 02:57:10;;;;;;;;;;;7.90;56.00;;;;;;4950314;28;75310;-71
2021/03/14 02:59:36;;;;;;;;;;;7.80;56.60;;;;;;4950401;28;75086;-72
2021/03/14 03:02:03;;;;;;;;;;;7.80;56.40;;;;;;4965129;28;78065;-71
2021/03/14 03:04:28;;;;;;;;;;;7.90;56.50;;;;;;4948719;28;76495;-72
2021/03/14 03:06:55;;;;;;;;;;;7.90;55.50;;;;;;4949850;28;75163;-70
2021/03/14 03:09:20;;;;;;;;;;;7.90;55.20;;;;;;4948418;28;75394;-72
2021/03/14 03:11:50;;;;;;;;;;;8.00;55.10;;;;;;4950081;28;75323;-70
2021/03/14 03:14:17;;;;;;;;;;;8.10;54.60;;;;;;4949843;28;75217;-71
2021/03/14 03:16:46;;;;;;;;;;;8.20;54.60;;;;;;4950277;28;75727;-73
2021/03/14 03:19:12;;;;;;;;;;;8.20;54.20;;;;;;4948415;28;78140;-73
2021/03/14 03:21:38;;;;;;;;;;;8.30;53.90;;;;;;4949970;28;75713;-75
2021/03/14 03:24:05;;;;;;;;;;;8.20;53.80;;;;;;4948230;28;76750;-74
2021/03/14 03:26:31;;;;;;;;;;;8.30;53.80;;;;;;4950414;28;74735;-73
2021/03/14 03:28:56;;;;;;;;;;;8.20;53.80;;;;;;4950141;28;74555;-73
2021/03/14 03:31:22;;;;;;;;;;;8.20;54.30;;;;;;4950084;28;75189;-73
2021/03/14 03:33:47;;;;;;;;;;;8.20;55.00;;;;;;4950172;28;74367;-74
2021/03/14 03:36:13;;;;;;;;;;;8.10;54.30;;;;;;4949899;28;75758;-72
2021/03/14 03:38:39;;;;;;;;;;;8.00;54.70;;;;;;4948489;28;77690;-71
2021/03/14 03:41:04;;;;;;;;;;;7.90;54.70;;;;;;4949908;28;75613;-71
2021/03/14 03:43:30;;;;;;;;;;;7.90;54.30;;;;;;4949402;28;75186;-72
2021/03/14 03:45:58;;;;;;;;;;;7.90;54.90;;;;;;4949812;28;75034;-70
2021/03/14 03:48:31;;;;;;;;;;;7.90;55.50;;;;;;4952637;28;75044;-72
2021/03/14 03:50:57;;;;;;;;;;;7.80;55.70;;;;;;4951730;28;78256;-73
2021/03/14 03:53:23;;;;;;;;;;;7.60;55.50;;;;;;4952098;28;75126;-72
2021/03/14 03:55:49;;;;;;;;;;;7.60;55.30;;;;;;4950748;28;77928;-70
2021/03/14 03:58:16;;;;;;;;;;;7.70;55.40;;;;;;4952866;28;75043;-69
2021/03/14 04:00:42;;;;;;;;;;;7.60;55.00;;;;;;4951166;28;76410;-72
2021/03/14 04:03:08;;;;;;;;;;;7.70;55.00;;;;;;4952580;28;74626;-72
2021/03/14 04:05:34;;;;;;;;;;;7.70;55.00;;;;;;4952722;28;75257;-71
2021/03/14 04:07:59;;;;;;;;;;;7.70;55.50;;;;;;4952764;28;75052;-71
2021/03/14 04:10:28;;;;;;;;;;;7.70;55.60;;;;;;4952499;28;74960;-70
2021/03/14 04:12:54;;;;;;;;;;;7.60;55.30;;;;;;4952648;28;75057;-70
2021/03/14 04:15:22;;;;;;;;;;;7.60;55.80;;;;;;4953034;28;75540;-72
2021/03/14 04:17:49;;;;;;;;;;;7.60;55.50;;;;;;4953593;28;75217;-70
2021/03/14 04:20:16;;;;;;;;;;;7.60;55.30;;;;;;4954545;28;75007;-68
2021/03/14 04:22:43;;;;;;;;;;;7.60;55.30;;;;;;4950740;28;77571;-70
2021/03/14 04:25:10;;;;;;;;;;;7.60;55.20;;;;;;4952215;28;74911;-69
2021/03/14 04:27:36;;;;;;;;;;;7.60;55.20;;;;;;4952573;28;74461;-69
2021/03/14 04:30:03;;;;;;;;;;;7.60;55.10;;;;;;4950987;28;76206;-71
2021/03/14 04:32:29;;;;;;;;;;;7.60;55.00;;;;;;4952195;28;74995;-70
2021/03/14 04:34:55;;;;;;;;;;;7.60;55.10;;;;;;4952299;28;75112;-70
2021/03/14 04:37:21;;;;;;;;;;;7.60;55.20;;;;;;4952818;28;74442;-71
2021/03/14 04:39:47;;;;;;;;;;;7.60;56.30;;;;;;4950348;28;77419;-71
2021/03/14 04:42:13;;;;;;;;;;;7.50;55.50;;;;;;4950715;28;77413;-72
2021/03/14 04:44:39;;;;;;;;;;;7.50;55.60;;;;;;4950872;28;75373;-70
2021/03/14 04:47:05;;;;;;;;;;;7.50;55.60;;;;;;4950743;28;76597;-70
2021/03/14 04:49:33;;;;;;;;;;;7.50;56.00;;;;;;4950551;28;77983;-70
2021/03/14 04:51:58;;;;;;;;;;;7.40;55.90;;;;;;4951550;28;74427;-71
2021/03/14 04:54:24;;;;;;;;;;;7.40;55.80;;;;;;4951529;28;75015;-69
2021/03/14 04:56:51;;;;;;;;;;;7.30;56.50;;;;;;4950189;28;76986;-70
2021/03/14 04:59:17;;;;;;;;;;;7.20;56.40;;;;;;4951873;28;75160;-71
2021/03/14 05:01:44;;;;;;;;;;;7.10;56.50;;;;;;4951703;28;75043;-70
2021/03/14 05:04:12;;;;;;;;;;;7.00;56.80;;;;;;4950303;28;77448;-70
2021/03/14 05:06:40;;;;;;;;;;;6.90;56.90;;;;;;4950347;28;75130;-70
2021/03/14 05:09:06;;;;;;;;;;;6.80;57.10;;;;;;4951785;28;75202;-70
2021/03/14 05:11:32;;;;;;;;;;;6.70;58.60;;;;;;4950271;28;77780;-70
2021/03/14 05:13:58;;;;;;;;;;;6.60;57.90;;;;;;4950125;28;74565;-72
2021/03/14 05:16:25;;;;;;;;;;;6.60;58.60;;;;;;4950419;28;77375;-71
2021/03/14 05:18:51;;;;;;;;;;;6.50;58.20;;;;;;4951631;28;75374;-70
2021/03/14 05:21:17;;;;;;;;;;;6.50;58.00;;;;;;4951881;28;74455;-73
2021/03/14 05:23:43;;;;;;;;;;;6.60;57.90;;;;;;4951511;28;75709;-70
2021/03/14 05:26:10;;;;;;;;;;;6.60;58.40;;;;;;4949817;28;75408;-71
2021/03/14 05:28:37;;;;;;;;;;;6.60;58.20;;;;;;4950527;28;75467;-72
2021/03/14 05:31:03;;;;;;;;;;;6.50;58.30;;;;;;4949947;28;77357;-71
2021/03/14 05:33:28;;;;;;;;;;;6.60;58.00;;;;;;4949895;28;78257;-70
2021/03/14 05:35:54;;;;;;;;;;;6.50;58.90;;;;;;4952131;28;74503;-70
2021/03/14 05:38:19;;;;;;;;;;;6.50;58.80;;;;;;4949835;28;77295;-71
2021/03/14 05:40:45;;;;;;;;;;;6.40;59.50;;;;;;4949990;28;74495;-72
2021/03/14 05:43:11;;;;;;;;;;;6.40;58.80;;;;;;4949717;28;76242;-71
2021/03/14 05:45:37;;;;;;;;;;;6.40;58.40;;;;;;4967587;27;75834;-73
2021/03/14 05:48:02;;;;;;;;;;;6.50;58.30;;;;;;4949756;28;76201;-71
2021/03/14 05:50:29;;;;;;;;;;;6.50;58.10;;;;;;4951324;28;75297;-73
2021/03/14 05:52:55;;;;;;;;;;;6.60;58.10;;;;;;4950005;28;76758;-71
2021/03/14 05:55:22;;;;;;;;;;;6.60;57.80;;;;;;4950792;28;75219;-72
2021/03/14 05:57:49;;;;;;;;;;;6.70;57.70;;;;;;4951084;28;75539;-69
2021/03/14 06:00:22;;;;;;;;;;;6.70;58.10;;;;;;4949510;28;77596;-70
2021/03/14 06:02:48;;;;;;;;;;;6.60;58.20;;;;;;4949575;28;78137;-72
2021/03/14 06:05:14;;;;;;;;;;;6.60;58.00;;;;;;4949558;28;77255;-72
2021/03/14 06:07:40;;;;;;;;;;;6.70;58.30;;;;;;4951233;28;75169;-73
2021/03/14 06:10:06;;;;;;;;;;;6.60;59.60;;;;;;4948610;28;76102;-72
2021/03/14 06:12:32;;;;;;;;;;;6.40;60.10;;;;;;4952617;27;75561;-70
2021/03/14 06:14:58;;;;;;;;;;;6.40;60.20;;;;;;4951646;28;75158;-70
2021/03/14 06:17:25;;;;;;;;;;;6.30;60.80;;;;;;4951628;28;75519;-71
2021/03/14 06:19:51;;;;;;;;;;;6.30;60.50;;;;;;4969722;28;76936;-73
2021/03/14 06:22:16;;;;;;;;;;;6.30;60.10;;;;;;4954497;28;75410;-70
2021/03/14 06:24:42;;;;;;;;;;;6.40;59.50;;;;;;4951557;28;74705;-69
2021/03/14 06:27:07;;;;;;;;;;;6.40;59.40;;;;;;4949562;28;76932;-69
2021/03/14 06:29:33;;;;;;;;;;;6.40;59.10;;;;;;4951212;28;75703;-73
2021/03/14 06:32:00;;;;;;;;;;;6.50;59.00;;;;;;4949425;28;75667;-70
2021/03/14 06:34:27;;;;;;;;;;;6.60;59.00;;;;;;4950993;28;75247;-70
2021/03/14 06:36:53;;;;;;;;;;;6.60;58.90;;;;;;4949594;28;78139;-73
2021/03/14 06:39:24;;;;;;;;;;;6.50;59.70;;;;;;4951171;28;74630;-77
2021/03/14 06:41:50;;;;;;;;;;;6.50;59.30;;;;;;4950663;28;74384;-76
2021/03/14 06:44:45;;;;;;;;;;;6.50;59.00;;;;;;4952077;28;75100;-69
2021/03/14 06:47:12;;;;;;;;;;;6.60;58.90;;;;;;4950460;28;75166;-70
2021/03/14 06:49:38;;;;;;;;;;;6.70;58.60;;;;;;4951197;28;74460;-69
2021/03/14 06:52:04;;;;;;;;;;;6.80;58.60;;;;;;4949452;28;75479;-70
2021/03/14 06:54:30;;;;;;;;;;;6.80;58.40;;;;;;4950317;28;74578;-69
2021/03/14 06:57:15;;;;;;;;;;;6.90;58.40;;;;;;4948674;28;76220;-70
2021/03/14 06:59:42;;;;;;;;;;;6.90;58.90;;;;;;4950741;28;75667;-71
2021/03/14 07:02:10;;;;;;;;;;;6.90;58.20;;;;;;4948999;28;75153;-73
2021/03/14 07:04:36;;;;;;;;;;;7.00;58.10;;;;;;4951358;28;75100;-71
2021/03/14 07:07:02;;;;;;;;;;;7.10;58.00;;;;;;4951183;28;75587;-72
2021/03/14 07:09:28;;;;;;;;;;;7.20;57.80;;;;;;4950773;28;74582;-72
2021/03/14 07:11:53;;;;;;;;;;;7.30;57.80;;;;;;4948746;28;74483;-71
2021/03/14 07:14:20;;;;;;;;;;;7.40;57.70;;;;;;4950009;28;75186;-70
2021/03/14 07:16:47;;;;;;;;;;;7.40;57.60;;;;;;4948816;28;77494;-72
2021/03/14 07:19:14;;;;;;;;;;;7.50;57.40;;;;;;4950463;28;75197;-71
2021/03/14 07:21:40;;;;;;;;;;;7.50;57.60;;;;;;4952373;28;74534;-71
2021/03/14 07:24:10;;;;;;;;;;;7.50;57.40;;;;;;4953747;28;75607;-72
2021/03/14 07:26:40;;;;;;;;;;;7.50;57.70;;;;;;4951085;28;75205;-72
2021/03/14 07:29:06;;;;;;;;;;;7.40;57.70;;;;;;4951472;28;75438;-73
2021/03/14 07:31:33;;;;;;;;;;;7.40;57.60;;;;;;4954125;28;75111;-72
2021/03/14 07:34:00;;;;;;;;;;;7.40;57.40;;;;;;4955911;28;75181;-70
2021/03/14 07:36:25;;;;;;;;;;;7.40;57.20;;;;;;4955627;28;75671;-72
2021/03/14 07:38:51;;;;;;;;;;;7.40;57.10;;;;;;4955393;28;75781;-71
2021/03/14 07:41:16;;;;;;;;;;;7.40;57.00;;;;;;4955567;28;75205;-74
2021/03/14 07:43:42;;;;;;;;;;;7.40;56.80;;;;;;4953719;28;74659;-74
2021/03/14 07:46:08;;;;;;;;;;;7.40;57.70;;;;;;4954711;28;74614;-73
2021/03/14 07:48:34;;;;;;;;;;;7.30;57.90;;;;;;4954090;28;74431;-71
2021/03/14 07:51:00;;;;;;;;;;;7.20;58.50;;;;;;4953554;28;75249;-72
2021/03/14 07:53:25;;;;;;;;;;;7.10;58.90;;;;;;4952429;28;78426;-71
2021/03/14 07:55:55;;;;;;;;;;;7.10;58.70;;;;;;4953131;28;75262;-69
2021/03/14 07:58:24;;;;;;;;;;;7.20;58.50;;;;;;4951685;28;75226;-72
2021/03/14 08:00:50;;;;;;;;;;;7.30;58.30;;;;;;4951462;28;78641;-71
2021/03/14 08:03:16;;;;;;;;;;;7.40;58.30;;;;;;4951285;28;77024;-69
2021/03/14 08:05:51;;;;;;;;;;;7.40;57.80;;;;;;4952770;28;75677;-71
2021/03/14 08:08:17;;;;;;;;;;;7.50;58.30;;;;;;4953492;28;74996;-72
2021/03/14 08:10:43;;;;;;;;;;;7.60;58.30;;;;;;4952640;28;75301;-70
2021/03/14 08:13:35;;;;;;;;;;;7.60;58.00;;;;;;4952211;28;75279;-70
2021/03/14 08:16:02;;;;;;;;;;;7.70;57.70;;;;;;4953116;28;75302;-70
2021/03/14 08:18:37;;;;;;;;;;;7.90;57.40;;;;;;4968246;27;76220;-70
2021/03/14 08:21:03;;;;;;;;;;;7.90;57.50;;;;;;4951214;28;78402;-74
2021/03/14 08:23:45;;;;;;;;;;;8.00;57.40;;;;;;4951702;28;75489;-73
2021/03/14 08:26:17;;;;;;;;;;;8.20;56.90;;;;;;4952800;28;75374;-73
2021/03/14 08:28:52;;;;;;;;;;;8.30;56.70;;;;;;4951478;28;77326;-74
2021/03/14 08:31:39;;;;;;;;;;;8.40;56.60;;;;;;4952548;28;75607;-75
2021/03/14 08:34:06;;;;;;;;;;;8.50;56.00;;;;;;4949778;28;75688;-76
2021/03/14 08:36:42;;;;;;;;;;;8.70;56.00;;;;;;4950763;28;76665;-73
2021/03/14 08:39:19;;;;;;;;;;;8.90;55.60;;;;;;4950690;28;78140;-73
2021/03/14 08:41:45;;;;;;;;;;;8.90;55.10;;;;;;4950382;28;76402;-73
2021/03/14 08:44:13;;;;;;;;;;;9.20;55.20;;;;;;4952415;28;75695;-74
2021/03/14 08:46:42;;;;;;;;;;;9.20;54.70;;;;;;4950845;28;76401;-73
2021/03/14 08:49:08;;;;;;;;;;;9.30;54.50;;;;;;4951019;28;78407;-72
2021/03/14 08:51:34;;;;;;;;;;;9.40;54.50;;;;;;4951727;28;75556;-73
2021/03/14 08:54:00;;;;;;;;;;;9.50;54.00;;;;;;4961720;28;77196;-73
2021/03/14 08:56:25;;;;;;;;;;;9.70;54.00;;;;;;4951857;28;74643;-71
2021/03/14 08:59:07;;;;;;;;;;;9.90;53.80;;;;;;4952151;28;75332;-71
2021/03/14 09:01:33;;;;;;;;;;;10.10;53.10;;;;;;4950378;28;75598;-73
2021/03/14 09:04:08;;;;;;;;;;;10.20;52.70;;;;;;4950235;28;76321;-73
2021/03/14 09:06:34;;;;;;;;;;;10.30;52.50;;;;;;4952094;28;75310;-72
2021/03/14 09:09:00;;;;;;;;;;;10.40;52.50;;;;;;4950499;28;75274;-71
2021/03/14 09:11:36;;;;;;;;;;;10.60;52.20;;;;;;4945629;28;75457;-72
2021/03/14 09:14:20;;;;;;;;;;;10.80;51.80;;;;;;4933680;28;75328;-72
2021/03/14 09:16:46;;;;;;;;;;;10.90;51.20;;;;;;4929333;28;76377;-72
2021/03/14 09:19:19;;;;;;;;;;;11.00;51.10;;;;;;4925263;28;75365;-71
2021/03/14 09:21:49;;;;;;;;;;;11.20;51.00;;;;;;4927481;28;76319;-73
2021/03/14 09:24:28;;;;;;;;;;;11.40;50.90;;;;;;4923484;28;77018;-72
2021/03/14 09:27:14;;;;;;;;;;;11.50;50.10;;;;;;4924471;28;76517;-69
2021/03/14 09:29:40;;;;;;;;;;;11.70;49.80;;;;;;4922490;28;77154;-66
2021/03/14 09:32:18;;;;;;;;;;;11.90;49.30;;;;;;4922493;28;76135;-69
2021/03/14 09:34:43;;;;;;;;;;;12.00;49.50;;;;;;4926953;28;76180;-67
2021/03/14 09:37:09;;;;;;;;;;;12.20;48.80;;;;;;4920086;28;76208;-65
2021/03/14 09:39:35;;;;;;;;;;;12.40;48.40;;;;;;4926562;28;75986;-67
2021/03/14 09:42:01;;;;;;;;;;;12.70;47.90;;;;;;4923505;28;78505;-71
2021/03/14 09:44:30;;;;;;;;;;;13.00;48.10;;;;;;4922717;28;75793;-66
2021/03/14 09:46:56;;;;;;;;;;;13.40;47.40;;;;;;4923821;28;76205;-66
2021/03/14 09:49:22;;;;;;;;;;;13.70;46.70;;;;;;4921129;28;76220;-66
2021/03/14 09:51:57;;;;;;;;;;;14.00;45.90;;;;;;4924588;28;76944;-65
2021/03/14 09:54:23;;;;;;;;;;;14.40;45.60;;;;;;4923989;28;75266;-68
2021/03/14 09:56:50;;;;;;;;;;;14.60;45.10;;;;;;4922943;28;76213;-68
2021/03/14 09:59:23;;;;;;;;;;;14.90;44.30;;;;;;4927978;28;75755;-72
2021/03/14 10:01:49;;;;;;;;;;;15.20;43.80;;;;;;4925779;28;78658;-69
2021/03/14 10:04:15;;;;;;;;;;;15.40;42.70;;;;;;4924086;28;76295;-66
2021/03/14 10:06:41;;;;;;;;;;;15.50;41.60;;;;;;4918579;28;77138;-69
2021/03/14 10:09:06;;;;;;;;;;;15.60;41.60;;;;;;4929141;28;75768;-66
2021/03/14 10:11:32;;;;;;;;;;;15.80;42.00;;;;;;4931804;28;76274;-65
2021/03/14 10:13:58;;;;;;;;;;;16.00;42.20;;;;;;4930245;28;75683;-65
2021/03/14 10:16:27;;;;;;;;;;;16.20;41.00;;;;;;4927172;28;76326;-65
2021/03/14 10:18:57;;;;;;;;;;;16.40;41.00;;;;;;4927841;28;75593;-71
2021/03/14 10:21:26;;;;;;;;;;;16.70;40.30;;;;;;4926815;28;76338;-65
2021/03/14 10:24:12;;;;;;;;;;;17.00;39.30;;;;;;4926872;28;76140;-66
2021/03/14 10:26:50;;;;;;;;;;;17.20;38.90;;;;;;4938311;28;75931;-66
2021/03/14 10:29:15;;;;;;;;;;;17.50;39.30;;;;;;4924674;28;75917;-68
2021/03/14 10:31:41;;;;;;;;;;;17.80;38.50;;;;;;4930688;28;75125;-68
2021/03/14 10:34:08;;;;;;;;;;;18.10;37.50;;;;;;4931225;28;76302;-70
2021/03/14 10:36:34;;;;;;;;;;;18.30;35.70;;;;;;4931420;28;74514;-69
2021/03/14 10:39:00;;;;;;;;;;;18.40;35.70;;;;;;4931919;28;75050;-67
2021/03/14 10:41:26;;;;;;;;;;;18.50;36.70;;;;;;4962467;28;76647;-67
2021/03/14 10:43:53;;;;;;;;;;;18.90;35.80;;;;;;5031160;28;77908;-72
2021/03/14 10:46:37;;;;;;;;;;;19.40;35.20;;;;;;5033018;28;74747;-66
2021/03/14 10:49:10;;;;;;;;;;;19.70;34.70;;;;;;5031284;28;77016;-66
2021/03/14 10:51:36;;;;;;;;;;;20.20;34.40;;;;;;5031085;28;76351;-71
2021/03/14 10:54:06;;;;;;;;;;;20.60;33.90;;;;;;5032074;28;75242;-69
2021/03/14 10:56:38;;;;;;;;;;;21.20;33.60;;;;;;5032085;28;75360;-68
2021/03/14 10:59:04;;;;;;;;;;;21.70;32.50;;;;;;5032505;28;75319;-66
2021/03/14 11:01:38;;;;;;;;;;;22.30;31.10;;;;;;5032497;28;75216;-67
2021/03/14 11:04:05;;;;;;;;;;;22.60;30.20;;;;;;5031267;28;75409;-69
2021/03/14 11:06:30;;;;;;;;;;;23.00;30.20;;;;;;5032671;28;74521;-64
2021/03/14 11:08:58;;;;;;;;;;;23.40;29.70;;;;;;5030620;28;75600;-71
2021/03/14 11:11:36;;;;;;;;;;;23.80;28.50;;;;;;5030678;28;78020;-65
2021/03/14 11:14:21;;;;;;;;;;;23.90;27.60;;;;;;5032207;28;75162;-68
2021/03/14 11:16:47;;;;;;;;;;;23.90;26.80;;;;;;5030298;28;75408;-66
2021/03/14 11:19:12;;;;;;;;;;;23.90;27.90;;;;;;5032817;28;74426;-66
2021/03/14 11:21:38;;;;;;;;;;;24.70;28.00;;;;;;5032667;28;76000;-64
2021/03/14 11:24:04;;;;;;;;;;;25.90;26.30;;;;;;5031023;28;75660;-65
2021/03/14 11:26:29;;;;;;;;;;;26.90;25.80;;;;;;5030628;28;77276;-65
2021/03/14 11:28:55;;;;;;;;;;;27.90;24.60;;;;;;5032088;28;75097;-64
2021/03/14 11:31:21;;;;;;;;;;;28.90;24.20;;;;;;5032266;28;75756;-68
2021/03/14 11:33:46;;;;;;;;;;;29.90;22.90;;;;;;5030107;28;75929;-65
2021/03/14 11:36:12;;;;;;;;;;;30.90;22.20;;;;;;5032300;28;75125;-65
2021/03/14 11:38:37;;;;;;;;;;;31.00;21.50;;;;;;5032236;28;76258;-64
2021/03/14 11:41:03;;;;;;;;;;;31.00;21.90;;;;;;5031851;28;75121;-65
2021/03/14 11:43:29;;;;;;;;;;;31.90;21.00;;;;;;5030791;28;77502;-67
2021/03/14 11:45:54;;;;;;;;;;;33.10;19.80;;;;;;5030516;28;77415;-67
2021/03/14 11:48:20;;;;;;;;;;;33.70;19.40;;;;;;5032366;28;75123;-70
2021/03/14 11:50:45;;;;;;;;;;;34.30;19.40;;;;;;5032235;28;75267;-65
2021/03/14 11:53:11;;;;;;;;;;;35.00;19.00;;;;;;5031016;28;75425;-65
2021/03/14 11:55:37;;;;;;;;;;;35.90;18.40;;;;;;5031269;28;75192;-65
2021/03/14 11:58:03;;;;;;;;;;;36.70;17.90;;;;;;5031857;28;75223;-66
2021/03/14 12:00:29;;;;;;;;;;;37.20;17.40;;;;;;4954331;28;75142;-68
2021/03/14 12:02:54;;;;;;;;;;;36.70;17.70;;;;;;4949349;28;74887;-68
2021/03/14 12:05:20;;;;;;;;;;;36.60;18.00;;;;;;4947884;28;77616;-65
2021/03/14 12:07:46;;;;;;;;;;;37.00;17.10;;;;;;4950157;28;75039;-69
2021/03/14 12:10:12;;;;;;;;;;;36.90;17.80;;;;;;4951332;28;75426;-71
2021/03/14 12:12:37;;;;;;;;;;;37.20;17.50;;;;;;4952587;28;75037;-70
2021/03/14 12:15:03;;;;;;;;;;;37.80;16.10;;;;;;4953480;28;74397;-72
2021/03/14 12:17:29;;;;;;;;;;;38.70;16.30;;;;;;4952845;28;75518;-67
2021/03/14 12:19:55;;;;;;;;;;;38.80;15.60;;;;;;4953923;28;74588;-70
2021/03/14 12:22:20;;;;;;;;;;;38.70;16.40;;;;;;4951293;28;77598;-65
2021/03/14 12:24:46;;;;;;;;;;;38.90;15.50;;;;;;4952723;28;74593;-66
2021/03/14 12:27:11;;;;;;;;;;;37.80;14.80;;;;;;4950892;28;77937;-65
2021/03/14 12:29:37;;;;;;;;;;;37.20;16.70;;;;;;4952209;28;76259;-67
2021/03/14 12:32:03;;;;;;;;;;;36.60;17.00;;;;;;4952640;28;75121;-68
2021/03/14 12:34:28;;;;;;;;;;;36.40;16.70;;;;;;4952444;28;75069;-65
2021/03/14 12:36:54;;;;;;;;;;;35.20;17.80;;;;;;4952405;28;75162;-67
2021/03/14 12:39:19;;;;;;;;;;;35.60;18.00;;;;;;4952640;28;74506;-66
2021/03/14 12:41:45;;;;;;;;;;;36.40;17.70;;;;;;4951864;28;75125;-67
2021/03/14 12:44:11;;;;;;;;;;;34.90;18.00;;;;;;4951302;28;77320;-65
2021/03/14 12:46:36;;;;;;;;;;;33.60;17.70;;;;;;4950739;28;76494;-66
2021/03/14 12:49:02;;;;;;;;;;;33.20;19.50;;;;;;4952852;28;74679;-66
2021/03/14 12:51:28;;;;;;;;;;;33.80;18.90;;;;;;4952568;28;75739;-66
2021/03/14 12:53:53;;;;;;;;;;;34.40;18.20;;;;;;4951632;28;75192;-66
2021/03/14 12:56:19;;;;;;;;;;;33.70;19.10;;;;;;4952515;28;74482;-65
2021/03/14 12:58:45;;;;;;;;;;;33.50;19.00;;;;;;4951861;28;75600;-64
2021/03/14 13:01:10;;;;;;;;;;;32.40;19.80;;;;;;4951732;28;76305;-68
2021/03/14 13:03:36;;;;;;;;;;;31.50;20.20;;;;;;4951995;28;75319;-67
2021/03/14 13:06:02;;;;;;;;;;;32.40;20.60;;;;;;4952264;28;74490;-65
2021/03/14 13:08:28;;;;;;;;;;;33.40;19.00;;;;;;4952367;28;75160;-68
2021/03/14 13:10:53;;;;;;;;;;;33.00;18.90;;;;;;4951719;28;76341;-67
2021/03/14 13:13:19;;;;;;;;;;;32.90;17.60;;;;;;4952411;28;76702;-66
2021/03/14 13:15:44;;;;;;;;;;;33.00;17.30;;;;;;4951245;28;76507;-67
2021/03/14 13:18:11;;;;;;;;;;;31.60;18.10;;;;;;4950799;28;78234;-69
2021/03/14 13:20:36;;;;;;;;;;;30.30;19.10;;;;;;4950754;28;75588;-64
2021/03/14 13:23:02;;;;;;;;;;;30.40;19.60;;;;;;4952080;28;74599;-68
2021/03/14 13:25:30;;;;;;;;;;;32.70;18.70;;;;;;4951777;28;75187;-68
2021/03/14 13:27:57;;;;;;;;;;;34.50;17.80;;;;;;4951536;28;75217;-68
2021/03/14 13:30:22;;;;;;;;;;;35.00;17.30;;;;;;4951980;28;75163;-65
2021/03/14 13:32:48;;;;;;;;;;;35.60;16.60;;;;;;4950214;28;77969;-67
2021/03/14 13:35:14;;;;;;;;;;;36.70;16.60;;;;;;4951497;28;75250;-66
2021/03/14 13:37:41;;;;;;;;;;;38.20;15.80;;;;;;4950305;28;75255;-66
2021/03/14 13:40:07;;;;;;;;;;;38.80;15.70;;;;;;4949986;28;76359;-64
2021/03/14 13:42:33;;;;;;;;;;;38.30;16.20;;;;;;4949996;28;77119;-66
2021/03/14 13:44:59;;;;;;;;;;;36.60;16.90;;;;;;4951982;28;74662;-65
2021/03/14 13:47:24;;;;;;;;;;;36.40;17.40;;;;;;4950297;28;77222;-66
2021/03/14 13:49:50;;;;;;;;;;;36.00;18.00;;;;;;4933934;28;75648;-66
2021/03/14 13:52:16;;;;;;;;;;;34.90;17.80;;;;;;4949913;28;76514;-64
2021/03/14 13:54:42;;;;;;;;;;;34.30;18.90;;;;;;4949922;28;75433;-65
2021/03/14 13:57:07;;;;;;;;;;;36.10;18.70;;;;;;4951061;28;75637;-66
2021/03/14 13:59:33;;;;;;;;;;;38.00;17.70;;;;;;5010233;28;75166;-66
2021/03/14 14:01:59;;;;;;;;;;;40.00;16.20;;;;;;5031620;28;77421;-66
2021/03/14 14:04:24;;;;;;;;;;;39.10;16.20;;;;;;5033744;28;74460;-67
2021/03/14 14:06:50;;;;;;;;;;;37.80;17.50;;;;;;5033558;28;75083;-66
2021/03/14 14:09:16;;;;;;;;;;;37.40;17.70;;;;;;5033414;28;75199;-67
2021/03/14 14:11:41;;;;;;;;;;;35.70;18.60;;;;;;5033233;28;75470;-67
2021/03/14 14:14:07;;;;;;;;;;;33.90;19.30;;;;;;5032848;28;75617;-65
2021/03/14 14:16:35;;;;;;;;;;;33.40;20.00;;;;;;5032434;28;75498;-66
2021/03/14 14:19:02;;;;;;;;;;;35.50;19.20;;;;;;5031884;28;75515;-66
2021/03/14 14:21:27;;;;;;;;;;;37.30;17.70;;;;;;5032788;28;74934;-66
2021/03/14 14:23:53;;;;;;;;;;;38.00;16.60;;;;;;5033600;28;75299;-67